Аэропорт: Кольцово. Екатеринбург

ICAO: USSS

METAR:
2022-06-26 11:30:00
USSS 261130Z 30006MPS 9999 BKN034 13/06 Q1007 R26R/010060 NOSIG RMK QFE734/0979
METAR:
2022-06-26 07:57:00
TAF USSS 260757Z 2609/2709 31008G17MPS 9999 BKN016 SCT020CB TEMPO 2609/2616 -SHRA FM261800 33003G13MPS 9999 -SHRA BKN016CB